EmailTwitter


Surface observations / France / LFBD (07510)

Regions: Quebec | Canada | USA | Europe | France | UK | Elsewhere
Station
Display
Info & Location for LFBD (07510) | Help decoding METAR

Weather Conditions observed on 2018/10/16 at 19:00 UTC at BORDEAUX/MERIGNA, FR (LFBD)

Temperature: 16.0 Celsius.

Dewpoint: 13.0 Celsius.

Relative Humidity: 82%

Winds: Northwest at 7 km/h or 4 knots.

Mean Sea level Pressure: 101.90 kilopascals.

Coded METAR:

LFBD 161900Z AUTO 32004KT 290V350 CAVOK 16/13 Q1019 NOSIG=